Time;durP1;ratioP1;P1;durP2;ratioP2;P2;SDS_P1;SDS_P2;PMS_P1;PMS_P2;Temp;Humidity;BMP_temperature;BMP_pressure;BME280_temperature;BME280_humidity;BME280_pressure;Samples;Min_cycle;Max_cycle;Signal;HPM_P1;HPM_P2
2023/12/24 00:00:04;;;;;;;6.10;3.80;;;;;;;0.26;77.72;95873.59;108002;1238;98716;-83
2023/12/24 00:02:32;;;;;;;12.30;5.10;;;;;;;0.27;77.97;95875.77;108309;1244;98492;-83
2023/12/24 00:04:58;;;;;;;12.60;5.70;;;;;;;0.22;77.98;95869.56;108000;1236;98070;-82
2023/12/24 00:07:25;;;;;;;9.80;4.30;;;;;;;0.19;78.05;95866.94;108227;1244;97957;-82
2023/12/24 00:09:54;;;;;;;10.40;4.70;;;;;;;0.19;78.10;95871.55;108345;1245;99143;-84
2023/12/24 00:12:28;;;;;;;9.20;4.40;;;;;;;0.18;78.34;95872.39;108162;1239;98305;-82
2023/12/24 00:14:57;;;;;;;11.10;5.30;;;;;;;0.16;78.54;95872.15;108213;1244;103595;-81
2023/12/24 00:17:23;;;;;;;12.30;5.40;;;;;;;0.14;78.45;95882.05;108147;1235;100941;-73
2023/12/24 00:19:50;;;;;;;9.90;4.40;;;;;;;0.14;78.77;95882.65;108053;1234;98289;-82
2023/12/24 00:22:16;;;;;;;9.40;4.50;;;;;;;0.10;79.07;95887.52;108101;1235;98809;-72
2023/12/24 00:24:43;;;;;;;10.00;4.40;;;;;;;0.07;79.14;95894.91;108180;1245;184483;-73
2023/12/24 00:27:10;;;;;;;9.80;4.60;;;;;;;0.05;79.30;95886.21;108168;1244;101214;-74
2023/12/24 00:29:36;;;;;;;10.50;5.40;;;;;;;0.03;79.36;95884.47;108185;1232;97992;-73
2023/12/24 00:32:03;;;;;;;8.60;4.60;;;;;;;0.01;79.44;95885.63;108221;1234;97949;-75
2023/12/24 00:34:29;;;;;;;6.60;3.70;;;;;;;-0.01;79.87;95885.83;108041;1244;97909;-73
2023/12/24 00:36:55;;;;;;;8.40;4.20;;;;;;;-0.02;79.77;95885.98;108176;1234;100982;-74
2023/12/24 00:39:22;;;;;;;5.30;3.10;;;;;;;-0.00;79.62;95889.08;107888;1230;98017;-74
2023/12/24 00:41:48;;;;;;;7.70;3.40;;;;;;;0.00;79.65;95884.61;107984;1235;98426;-74
2023/12/24 00:44:15;;;;;;;6.40;3.40;;;;;;;0.00;79.54;95888.85;108302;1239;98018;-73
2023/12/24 00:46:41;;;;;;;8.80;3.20;;;;;;;0.02;79.40;95893.10;108244;1237;107857;-69
2023/12/24 00:49:07;;;;;;;10.30;5.10;;;;;;;0.06;79.47;95897.05;108258;1234;97923;-69
2023/12/24 00:51:33;;;;;;;9.60;3.70;;;;;;;0.07;79.37;95892.09;108242;1244;98573;-69
2023/12/24 00:54:01;;;;;;;11.30;4.30;;;;;;;0.10;79.54;95897.65;108299;1244;97875;-69
2023/12/24 00:56:28;;;;;;;9.20;4.50;;;;;;;0.09;79.49;95898.15;108225;1245;101226;-69
2023/12/24 00:58:54;;;;;;;8.40;5.10;;;;;;;0.09;79.38;95903.76;108193;1244;97982;-69
2023/12/24 01:01:20;;;;;;;7.90;4.30;;;;;;;0.06;79.44;95900.20;108087;1234;98021;-68
2023/12/24 01:03:46;;;;;;;10.50;4.40;;;;;;;0.04;79.41;95900.81;108229;1235;99151;-69
2023/12/24 01:06:13;;;;;;;12.60;6.90;;;;;;;0.03;79.56;95904.10;108233;1235;101763;-69
2023/12/24 01:08:39;;;;;;;34.70;17.40;;;;;;;0.04;79.55;95909.14;108199;1237;98688;-69
2023/12/24 01:11:06;;;;;;;32.40;20.10;;;;;;;0.04;79.52;95909.83;108242;1238;97879;-69
2023/12/24 01:13:32;;;;;;;13.80;7.20;;;;;;;0.07;79.64;95917.47;108320;1232;97900;-69
2023/12/24 01:16:00;;;;;;;10.80;5.00;;;;;;;0.07;79.76;95922.20;108239;1235;101322;-69
2023/12/24 01:18:27;;;;;;;7.80;3.90;;;;;;;0.07;79.82;95922.77;108209;1234;99798;-69
2023/12/24 01:20:53;;;;;;;8.80;4.90;;;;;;;0.06;79.82;95922.65;108236;1234;97900;-68
2023/12/24 01:23:20;;;;;;;8.30;4.80;;;;;;;0.06;79.80;95920.23;108244;1244;97907;-68
2023/12/24 01:25:46;;;;;;;7.20;3.90;;;;;;;0.07;79.97;95920.82;108307;1235;99167;-69
2023/12/24 01:28:12;;;;;;;4.60;3.00;;;;;;;0.06;80.40;95923.74;108219;1234;98812;-69
2023/12/24 01:30:38;;;;;;;5.80;2.60;;;;;;;0.01;80.67;95923.27;108202;1232;98812;-68
2023/12/24 01:33:05;;;;;;;6.60;2.90;;;;;;;-0.04;80.96;95924.55;108256;1234;97891;-79
2023/12/24 01:35:33;;;;;;;5.60;2.80;;;;;;;-0.03;80.94;95923.02;108273;1237;97893;-79
2023/12/24 01:37:59;;;;;;;5.90;2.50;;;;;;;-0.03;80.76;95925.01;108222;1232;99833;-78
2023/12/24 01:40:25;;;;;;;3.90;2.40;;;;;;;0.00;80.54;95924.79;108249;1232;97904;-79
2023/12/24 01:42:51;;;;;;;4.60;2.00;;;;;;;-0.00;80.45;95923.45;108205;1232;97998;-79
2023/12/24 01:45:18;;;;;;;4.80;2.00;;;;;;;-0.00;80.24;95921.45;108320;1235;97955;-80
2023/12/24 01:47:44;;;;;;;2.70;1.30;;;;;;;0.01;79.71;95924.33;108255;1245;99158;-79
2023/12/24 01:50:11;;;;;;;1.60;1.10;;;;;;;0.03;79.60;95936.70;108216;1235;97912;-79
2023/12/24 01:52:38;;;;;;;2.00;1.00;;;;;;;0.03;79.43;95945.85;108273;1244;97855;-79
2023/12/24 01:55:06;;;;;;;2.70;1.40;;;;;;;0.04;79.58;95946.84;108195;1237;97952;-78
2023/12/24 01:57:34;;;;;;;2.80;1.70;;;;;;;0.06;79.55;95955.09;108252;1234;99030;-79
2023/12/24 02:00:00;;;;;;;1.80;0.80;;;;;;;0.07;79.34;95958.69;108227;1244;98618;-79
2023/12/24 02:02:28;;;;;;;1.60;1.30;;;;;;;0.05;79.19;95956.54;108104;1236;99148;-72
2023/12/24 02:04:54;;;;;;;1.50;1.20;;;;;;;0.03;79.10;95957.20;108331;1232;98006;-73
2023/12/24 02:07:23;;;;;;;3.60;1.10;;;;;;;0.03;79.28;95957.13;108349;1238;97827;-73
2023/12/24 02:09:50;;;;;;;2.50;1.40;;;;;;;0.07;79.34;95963.43;108321;1244;99816;-73
2023/12/24 02:12:16;;;;;;;5.40;1.90;;;;;;;0.09;79.30;95965.15;108216;1235;97913;-72
2023/12/24 02:14:42;;;;;;;4.40;1.50;;;;;;;0.10;79.47;95968.26;108323;1234;97960;-73
2023/12/24 02:17:09;;;;;;;1.40;1.10;;;;;;;0.10;79.64;95974.91;108214;1241;98809;-73
2023/12/24 02:19:36;;;;;;;1.90;1.20;;;;;;;0.07;79.89;95975.64;108216;1244;99772;-73
2023/12/24 02:22:02;;;;;;;1.30;1.00;;;;;;;0.06;79.90;95984.08;108278;1234;97917;-72
2023/12/24 02:24:29;;;;;;;2.90;1.30;;;;;;;0.05;80.00;95986.16;108215;1245;98006;-73
2023/12/24 02:27:22;;;;;;;1.80;1.20;;;;;;;0.04;80.03;95983.66;108293;1234;97916;-73
2023/12/24 02:29:52;;;;;;;1.80;1.10;;;;;;;0.05;80.12;95983.71;108262;1232;98389;-73
2023/12/24 02:32:20;;;;;;;2.80;1.30;;;;;;;0.06;80.33;95984.11;108260;1241;99008;-73
2023/12/24 02:34:48;;;;;;;1.60;1.30;;;;;;;0.04;80.13;95986.80;108261;1234;97907;-73
2023/12/24 02:37:15;;;;;;;3.30;1.30;;;;;;;0.01;80.12;95991.42;108251;1234;103446;-74
2023/12/24 02:39:42;;;;;;;2.60;1.20;;;;;;;-0.02;80.01;95987.67;108256;1237;98653;-73
2023/12/24 02:42:09;;;;;;;3.80;1.10;;;;;;;-0.03;79.96;95980.84;108210;1237;98828;-73
2023/12/24 02:44:36;;;;;;;3.00;1.30;;;;;;;-0.02;79.83;95980.04;108230;1245;98685;-73
2023/12/24 02:47:02;;;;;;;3.10;1.10;;;;;;;-0.02;79.66;95974.01;108284;1234;98927;-75
2023/12/24 02:49:28;;;;;;;3.00;1.10;;;;;;;-0.02;79.50;95973.88;108265;1232;98821;-76
2023/12/24 02:51:55;;;;;;;2.10;1.00;;;;;;;-0.03;79.44;95978.39;108282;1244;100024;-76
2023/12/24 02:54:21;;;;;;;2.10;1.00;;;;;;;-0.05;79.41;95980.39;108274;1239;97980;-70
2023/12/24 02:56:47;;;;;;;2.90;1.30;;;;;;;-0.06;79.49;95986.17;108260;1235;97871;-70
2023/12/24 02:59:13;;;;;;;2.30;1.00;;;;;;;-0.05;79.61;95982.05;108307;1244;99138;-71
2023/12/24 03:01:40;;;;;;;1.70;1.00;;;;;;;-0.08;80.06;95985.55;108208;1244;100079;-70
2023/12/24 03:04:06;;;;;;;2.20;1.60;;;;;;;-0.12;79.93;95985.98;108205;1235;99138;-70
2023/12/24 03:06:33;;;;;;;2.60;1.70;;;;;;;-0.11;79.74;95990.32;107947;1238;99209;-70
2023/12/24 03:08:59;;;;;;;3.20;1.10;;;;;;;-0.09;79.72;95990.80;108361;1234;99024;-68
2023/12/24 03:11:26;;;;;;;2.90;1.40;;;;;;;-0.10;79.70;95990.38;108200;1238;98911;-80
2023/12/24 03:13:52;;;;;;;2.00;1.10;;;;;;;-0.10;79.71;95995.48;108176;1235;98587;-81
2023/12/24 03:16:18;;;;;;;2.10;1.10;;;;;;;-0.11;79.97;96005.74;108235;1234;97957;-81
2023/12/24 03:18:45;;;;;;;4.00;0.80;;;;;;;-0.15;79.95;96001.95;108309;1244;98397;-81
2023/12/24 03:21:11;;;;;;;2.00;0.70;;;;;;;-0.16;79.68;96003.15;108225;1244;99648;-81
2023/12/24 03:23:38;;;;;;;2.50;0.90;;;;;;;-0.17;79.82;96006.93;108218;1235;97993;-81
2023/12/24 03:26:04;;;;;;;3.80;1.10;;;;;;;-0.18;79.76;96003.32;108274;1244;98097;-82
2023/12/24 03:28:31;;;;;;;2.60;0.80;;;;;;;-0.19;79.89;96007.38;108309;1231;98995;-81
2023/12/24 03:30:57;;;;;;;2.10;0.90;;;;;;;-0.21;79.88;96004.44;108219;1234;99875;-79
2023/12/24 03:33:24;;;;;;;2.90;0.90;;;;;;;-0.21;79.76;96007.12;108160;1242;97897;-78
2023/12/24 03:35:50;;;;;;;1.30;0.80;;;;;;;-0.22;79.84;96005.77;108220;1238;97916;-79
2023/12/24 03:38:18;;;;;;;1.90;0.70;;;;;;;-0.20;79.74;96007.61;108332;1243;98811;-78
2023/12/24 03:40:44;;;;;;;2.00;0.70;;;;;;;-0.18;79.67;96012.83;108212;1244;99925;-78
2023/12/24 03:43:10;;;;;;;2.30;1.50;;;;;;;-0.16;79.61;96010.57;108217;1235;97910;-78
2023/12/24 03:45:36;;;;;;;1.20;1.10;;;;;;;-0.18;79.61;96009.43;108270;1234;98793;-81
2023/12/24 03:48:04;;;;;;;1.50;0.90;;;;;;;-0.20;79.38;96008.70;108306;1232;97979;-79
2023/12/24 03:50:30;;;;;;;1.50;0.70;;;;;;;-0.20;79.36;96005.33;108357;1235;99544;-68
2023/12/24 03:52:56;;;;;;;1.90;0.70;;;;;;;-0.18;79.31;96007.77;108331;1232;98606;-68
2023/12/24 03:55:23;;;;;;;1.00;0.70;;;;;;;-0.20;79.35;96008.30;108235;1236;97910;-68
2023/12/24 03:57:49;;;;;;;5.50;1.40;;;;;;;-0.15;79.34;96014.52;108312;1232;97833;-68
2023/12/24 04:00:15;;;;;;;6.60;2.50;;;;;;;-0.11;79.24;96017.05;108207;1232;99109;-68
2023/12/24 04:02:42;;;;;;;11.30;4.70;;;;;;;-0.09;79.24;96015.14;108186;1235;97905;-68
2023/12/24 04:05:08;;;;;;;8.10;2.40;;;;;;;-0.08;79.11;96016.27;108162;1243;97875;-68
2023/12/24 04:07:34;;;;;;;4.60;1.70;;;;;;;-0.09;79.01;96016.27;108326;1235;98587;-68
2023/12/24 04:10:01;;;;;;;2.90;0.80;;;;;;;-0.12;78.91;96015.02;108237;1245;99935;-68
2023/12/24 04:12:27;;;;;;;6.10;1.50;;;;;;;-0.13;78.86;96012.11;108212;1234;97910;-68
2023/12/24 04:14:53;;;;;;;1.90;0.60;;;;;;;-0.10;78.80;96017.27;108236;1235;97897;-68
2023/12/24 04:17:20;;;;;;;1.80;0.50;;;;;;;-0.08;78.85;96012.91;108171;1244;98577;-74
2023/12/24 04:19:46;;;;;;;2.20;0.90;;;;;;;-0.07;78.82;96011.21;108119;1234;99946;-74
2023/12/24 04:22:12;;;;;;;2.50;0.40;;;;;;;-0.06;78.74;96013.76;108203;1235;98502;-75
2023/12/24 04:24:39;;;;;;;2.70;0.50;;;;;;;-0.06;78.70;96010.87;108241;1235;98809;-74
2023/12/24 04:27:05;;;;;;;1.00;0.40;;;;;;;-0.07;78.62;96013.04;108318;1232;99180;-74
2023/12/24 04:29:32;;;;;;;0.90;0.40;;;;;;;-0.07;78.69;96019.66;108239;1232;99910;-75
2023/12/24 04:31:58;;;;;;;2.50;0.70;;;;;;;-0.04;78.80;96014.61;108198;1235;97916;-68
2023/12/24 04:34:24;;;;;;;3.00;0.70;;;;;;;-0.03;78.82;96015.50;108273;1235;99238;-69
2023/12/24 04:36:51;;;;;;;1.40;0.30;;;;;;;-0.02;78.80;96017.52;108304;1232;99145;-69
2023/12/24 04:39:17;;;;;;;1.00;0.50;;;;;;;-0.00;78.74;96021.58;108213;1244;100158;-70
2023/12/24 04:41:44;;;;;;;1.00;0.40;;;;;;;-0.03;78.64;96023.45;108199;1244;97888;-69
2023/12/24 04:44:10;;;;;;;1.30;0.50;;;;;;;-0.07;78.77;96027.30;108186;1234;97936;-69
2023/12/24 04:46:41;;;;;;;1.40;0.70;;;;;;;-0.11;78.86;96026.20;108278;1235;98042;-69
2023/12/24 04:49:08;;;;;;;1.40;0.40;;;;;;;-0.13;79.05;96031.41;108315;1238;100159;-75
2023/12/24 04:51:35;;;;;;;1.30;0.80;;;;;;;-0.14;79.15;96028.83;108237;1244;97952;-76
2023/12/24 04:54:02;;;;;;;1.40;0.90;;;;;;;-0.15;79.19;96027.44;108230;1244;97889;-76
2023/12/24 04:56:29;;;;;;;1.60;0.70;;;;;;;-0.16;79.30;96031.06;108290;1234;97879;-75
2023/12/24 04:58:57;;;;;;;2.20;0.60;;;;;;;-0.18;79.37;96036.04;108228;1234;97897;-75
2023/12/24 05:01:23;;;;;;;2.20;0.70;;;;;;;-0.19;79.49;96034.83;108191;1235;97897;-76
2023/12/24 05:03:49;;;;;;;0.60;0.50;;;;;;;-0.21;79.61;96031.52;108330;1241;97878;-75
2023/12/24 05:06:16;;;;;;;1.70;0.80;;;;;;;-0.25;79.78;96038.66;108252;1234;102961;-76
2023/12/24 05:08:42;;;;;;;2.90;1.10;;;;;;;-0.27;79.96;96039.40;108274;1235;99125;-76
2023/12/24 05:11:09;;;;;;;1.90;1.30;;;;;;;-0.27;79.90;96037.96;108220;1239;97929;-76
2023/12/24 05:13:36;;;;;;;2.40;1.40;;;;;;;-0.23;80.05;96044.35;108290;1244;99135;-76
2023/12/24 05:16:04;;;;;;;2.30;1.60;;;;;;;-0.21;80.01;96045.08;108325;1245;99132;-76
2023/12/24 05:18:31;;;;;;;4.90;2.00;;;;;;;-0.21;80.18;96040.67;108117;1234;101241;-76
2023/12/24 05:20:57;;;;;;;2.70;1.70;;;;;;;-0.22;80.12;96041.13;108199;1245;98009;-76
2023/12/24 05:23:25;;;;;;;2.50;1.90;;;;;;;-0.23;80.17;96039.98;108227;1234;97836;-76
2023/12/24 05:25:51;;;;;;;3.30;2.00;;;;;;;-0.24;80.16;96036.79;108235;1235;97881;-70
2023/12/24 05:28:18;;;;;;;4.80;2.80;;;;;;;-0.23;80.29;96044.30;108263;1232;97913;-70
2023/12/24 05:30:48;;;;;;;5.10;3.80;;;;;;;-0.21;80.36;96042.23;108250;1234;97937;-70
2023/12/24 05:33:14;;;;;;;2.80;2.30;;;;;;;-0.17;80.31;96044.42;108259;1234;97894;-81
2023/12/24 05:35:40;;;;;;;4.50;2.70;;;;;;;-0.17;80.41;96046.14;108219;1234;99149;-80
2023/12/24 05:38:07;;;;;;;4.60;3.10;;;;;;;-0.20;80.39;96042.65;108281;1231;97910;-80
2023/12/24 05:40:33;;;;;;;6.50;4.20;;;;;;;-0.20;80.29;96044.08;108299;1245;97981;-81
2023/12/24 05:42:59;;;;;;;5.90;3.20;;;;;;;-0.21;80.51;96042.63;108223;1238;97887;-80
2023/12/24 05:45:25;;;;;;;4.30;3.00;;;;;;;-0.22;80.64;96041.30;108251;1232;97923;-81
2023/12/24 05:47:52;;;;;;;4.70;3.20;;;;;;;-0.24;80.63;96039.04;108074;1234;97939;-70
2023/12/24 05:50:18;;;;;;;5.50;2.90;;;;;;;-0.25;80.73;96040.65;108286;1235;98079;-70
2023/12/24 05:52:44;;;;;;;4.80;3.20;;;;;;;-0.26;80.70;96040.52;108233;1243;98006;-70
2023/12/24 05:55:11;;;;;;;4.50;2.70;;;;;;;-0.26;80.81;96036.15;108282;1236;97897;-70
2023/12/24 05:57:37;;;;;;;3.70;2.30;;;;;;;-0.27;80.84;96038.21;108253;1234;98792;-70
2023/12/24 06:00:05;;;;;;;4.00;2.10;;;;;;;-0.27;81.02;96042.12;108322;1234;98806;-70
2023/12/24 06:02:31;;;;;;;5.90;3.90;;;;;;;-0.28;81.04;96045.34;108187;1234;97881;-76
2023/12/24 06:04:57;;;;;;;5.30;3.40;;;;;;;-0.28;81.08;96048.72;108249;1237;97919;-76
2023/12/24 06:07:24;;;;;;;5.70;2.70;;;;;;;-0.26;81.13;96045.82;108225;1235;99157;-76
2023/12/24 06:09:50;;;;;;;5.30;3.20;;;;;;;-0.23;81.15;96046.68;108335;1234;99162;-77
2023/12/24 06:12:16;;;;;;;5.70;3.30;;;;;;;-0.22;81.13;96044.65;108209;1245;97962;-76
2023/12/24 06:14:43;;;;;;;5.10;3.60;;;;;;;-0.22;81.09;96044.98;108032;1238;97967;-76
2023/12/24 06:17:09;;;;;;;11.20;7.00;;;;;;;-0.22;81.15;96042.00;108249;1233;97887;-76
2023/12/24 06:19:35;;;;;;;14.30;8.30;;;;;;;-0.21;81.12;96044.52;108237;1238;97996;-76
2023/12/24 06:22:01;;;;;;;12.50;8.80;;;;;;;-0.23;81.12;96046.02;108141;1238;98931;-76
2023/12/24 06:24:28;;;;;;;11.20;7.20;;;;;;;-0.23;81.13;96048.71;108297;1235;97913;-70
2023/12/24 06:26:54;;;;;;;8.80;6.90;;;;;;;-0.25;81.19;96051.70;108246;1242;99037;-76
2023/12/24 06:29:20;;;;;;;12.40;8.50;;;;;;;-0.23;81.24;96049.07;108301;1244;99161;-76
2023/12/24 06:31:47;;;;;;;11.50;6.80;;;;;;;-0.22;81.22;96050.71;108244;1234;98889;-76
2023/12/24 06:34:14;;;;;;;12.40;7.70;;;;;;;-0.23;81.29;96052.55;108286;1234;99132;-77
2023/12/24 06:36:40;;;;;;;13.00;7.50;;;;;;;-0.24;81.30;96048.65;108225;1244;99030;-76
2023/12/24 06:39:07;;;;;;;16.60;9.00;;;;;;;-0.23;81.41;96052.76;108225;1230;98606;-76
2023/12/24 06:41:33;;;;;;;18.20;9.40;;;;;;;-0.23;81.31;96057.15;108291;1235;97906;-77
2023/12/24 06:43:59;;;;;;;14.50;9.50;;;;;;;-0.23;81.40;96058.34;108225;1244;98304;-70
2023/12/24 06:46:25;;;;;;;15.90;8.50;;;;;;;-0.22;81.40;96057.70;108201;1234;97894;-69
2023/12/24 06:48:52;;;;;;;11.70;7.50;;;;;;;-0.22;81.44;96058.08;108194;1232;98801;-70
2023/12/24 06:51:18;;;;;;;11.20;6.40;;;;;;;-0.24;81.56;96058.98;108120;1238;97897;-69
2023/12/24 06:53:45;;;;;;;9.30;6.20;;;;;;;-0.25;81.61;96048.58;108230;1235;98325;-69
2023/12/24 06:56:11;;;;;;;9.70;6.00;;;;;;;-0.24;81.63;96045.80;108218;1232;98796;-70
2023/12/24 06:58:37;;;;;;;10.30;6.20;;;;;;;-0.24;81.71;96049.11;108075;1238;97939;-70
2023/12/24 07:01:03;;;;;;;9.30;6.10;;;;;;;-0.23;81.77;96057.11;108229;1239;99135;-77
2023/12/24 07:03:30;;;;;;;9.90;6.70;;;;;;;-0.22;81.74;96056.19;108146;1234;98515;-74
2023/12/24 07:05:56;;;;;;;11.50;7.80;;;;;;;-0.21;81.68;96062.38;108158;1234;97929;-77
2023/12/24 07:08:23;;;;;;;8.90;6.30;;;;;;;-0.17;81.80;96061.46;108261;1244;98026;-77
2023/12/24 07:10:49;;;;;;;9.70;6.40;;;;;;;-0.14;81.76;96057.73;108183;1234;99097;-77
2023/12/24 07:13:15;;;;;;;10.30;7.00;;;;;;;-0.12;81.68;96057.98;108220;1238;98333;-78
2023/12/24 07:15:42;;;;;;;8.70;5.90;;;;;;;-0.10;81.63;96053.70;108064;1232;98317;-77
2023/12/24 07:18:12;;;;;;;12.60;8.30;;;;;;;-0.09;81.75;96057.81;108272;1232;97972;-70
2023/12/24 07:20:38;;;;;;;12.80;8.00;;;;;;;-0.08;81.73;96063.15;108129;1235;99752;-69
2023/12/24 07:23:05;;;;;;;11.40;7.40;;;;;;;-0.07;81.66;96063.90;108177;1244;97897;-69
2023/12/24 07:25:31;;;;;;;13.60;7.80;;;;;;;-0.05;81.66;96063.16;108294;1235;97958;-70
2023/12/24 07:27:57;;;;;;;9.90;6.20;;;;;;;-0.04;81.80;96058.41;108147;1234;98047;-70
2023/12/24 07:30:25;;;;;;;15.80;9.30;;;;;;;-0.01;81.76;96057.42;108066;1238;98797;-69
2023/12/24 07:32:51;;;;;;;14.50;9.10;;;;;;;-0.02;81.72;96059.95;108090;1232;97992;-77
2023/12/24 07:35:18;;;;;;;12.30;8.10;;;;;;;0.00;81.74;96058.10;108138;1244;99056;-77
2023/12/24 07:37:47;;;;;;;15.50;9.00;;;;;;;0.02;81.88;96059.90;108207;1244;97903;-75
2023/12/24 07:40:14;;;;;;;12.70;8.60;;;;;;;0.04;81.93;96060.20;108262;1234;97984;-70
2023/12/24 07:42:40;;;;;;;11.50;8.10;;;;;;;0.06;81.94;96057.63;108089;1234;97982;-70
2023/12/24 07:45:07;;;;;;;14.10;9.30;;;;;;;0.08;81.87;96051.81;108279;1234;98066;-69
2023/12/24 07:47:33;;;;;;;16.00;10.40;;;;;;;0.10;81.92;96056.28;108304;1231;98716;-77
2023/12/24 07:49:59;;;;;;;20.30;11.30;;;;;;;0.12;81.88;96059.35;108243;1242;101756;-78
2023/12/24 07:52:25;;;;;;;18.70;11.50;;;;;;;0.14;81.85;96057.91;108205;1234;99124;-78
2023/12/24 07:54:52;;;;;;;17.30;10.70;;;;;;;0.16;81.80;96051.66;108183;1238;97977;-77
2023/12/24 07:57:18;;;;;;;30.10;15.60;;;;;;;0.20;81.74;96051.00;108114;1234;97893;-75
2023/12/24 07:59:45;;;;;;;42.20;20.40;;;;;;;0.23;81.75;96042.47;108197;1234;100240;-71
2023/12/24 08:02:12;;;;;;;34.10;16.20;;;;;;;0.26;81.78;96039.16;108271;1234;97825;-71
2023/12/24 08:04:39;;;;;;;37.10;19.20;;;;;;;0.28;81.75;96036.29;108315;1244;97922;-70
2023/12/24 08:07:05;;;;;;;34.00;16.30;;;;;;;0.31;81.85;96036.23;108148;1242;98012;-71
2023/12/24 08:09:32;;;;;;;26.80;14.70;;;;;;;0.35;81.77;96034.73;108519;1234;97910;-70
2023/12/24 08:11:58;;;;;;;25.90;14.90;;;;;;;0.38;81.70;96033.50;108346;1234;98865;-70
2023/12/24 08:14:24;;;;;;;22.20;14.30;;;;;;;0.41;81.70;96034.25;108122;1234;97805;-70
2023/12/24 08:16:50;;;;;;;27.00;15.90;;;;;;;0.42;81.71;96033.05;108083;1244;98907;-70
2023/12/24 08:19:17;;;;;;;30.20;16.70;;;;;;;0.46;81.84;96033.60;108267;1232;98013;-70
2023/12/24 08:21:43;;;;;;;26.10;16.60;;;;;;;0.49;81.81;96035.55;108620;1234;99125;-70
2023/12/24 08:24:09;;;;;;;23.50;14.50;;;;;;;0.51;81.78;96042.02;108100;1245;98801;-71
2023/12/24 08:26:36;;;;;;;24.50;14.80;;;;;;;0.52;81.79;96040.66;108281;1234;97910;-71
2023/12/24 08:29:03;;;;;;;24.00;14.80;;;;;;;0.56;81.68;96042.02;108348;1234;97951;-70
2023/12/24 08:31:29;;;;;;;27.20;15.90;;;;;;;0.57;81.79;96037.59;108249;1235;99881;-71
2023/12/24 08:33:55;;;;;;;26.20;13.10;;;;;;;0.59;81.79;96037.05;108226;1230;97860;-70
2023/12/24 08:36:22;;;;;;;27.20;14.20;;;;;;;0.60;81.88;96036.48;108221;1234;97922;-70
2023/12/24 08:38:49;;;;;;;32.70;17.10;;;;;;;0.62;81.86;96044.39;108328;1234;97917;-71
2023/12/24 08:41:15;;;;;;;22.70;12.80;;;;;;;0.65;81.93;96048.73;108287;1232;98880;-70
2023/12/24 08:45:45;;;;;;;33.40;17.10;;;;;;;0.77;82.18;96046.33;102634;1286;635805;-79
2023/12/24 08:48:13;;;;;;;20.50;11.60;;;;;;;0.81;82.08;96047.33;104290;1269;96853;-79
2023/12/24 08:50:41;;;;;;;14.00;9.40;;;;;;;0.82;81.93;96048.48;104192;1281;96734;-79
2023/12/24 08:53:09;;;;;;;16.00;10.10;;;;;;;0.81;81.85;96051.86;104203;1267;99546;-79
2023/12/24 08:55:37;;;;;;;14.90;9.90;;;;;;;0.81;81.81;96054.52;104197;1270;100457;-78
2023/12/24 08:58:04;;;;;;;15.70;10.70;;;;;;;0.81;81.85;96057.59;104198;1279;100653;-78
2023/12/24 09:00:33;;;;;;;16.20;10.60;;;;;;;0.80;81.89;96062.63;104952;1253;95815;-79
2023/12/24 09:03:01;;;;;;;24.30;13.60;;;;;;;0.79;81.83;96062.41;105071;1254;95835;-75
2023/12/24 09:05:30;;;;;;;18.40;10.30;;;;;;;0.78;81.79;96062.16;105172;1256;98580;-75
2023/12/24 09:07:58;;;;;;;20.40;10.90;;;;;;;0.78;81.88;96061.33;105161;1260;99962;-75
2023/12/24 09:10:26;;;;;;;23.80;14.60;;;;;;;0.78;81.97;96060.79;105060;1256;107419;-74
2023/12/24 09:12:53;;;;;;;28.10;14.40;;;;;;;0.78;82.00;96059.66;105088;1267;96200;-75
2023/12/24 09:15:21;;;;;;;30.00;15.70;;;;;;;0.79;82.02;96052.67;105047;1266;97091;-75
2023/12/24 09:17:49;;;;;;;38.00;21.50;;;;;;;0.79;82.10;96052.81;105000;1259;100712;-75
2023/12/24 09:20:17;;;;;;;44.40;24.90;;;;;;;0.80;82.19;96052.90;104952;1257;100346;-78
2023/12/24 09:22:44;;;;;;;41.60;23.30;;;;;;;0.82;82.21;96049.80;104963;1254;98984;-77
2023/12/24 09:25:12;;;;;;;35.50;22.60;;;;;;;0.83;82.27;96048.63;104975;1266;96159;-76
2023/12/24 09:27:40;;;;;;;30.10;20.00;;;;;;;0.83;82.29;96041.14;104957;1254;96120;-76
2023/12/24 09:30:08;;;;;;;27.90;18.80;;;;;;;0.83;82.39;96039.73;104909;1266;100851;-78
2023/12/24 09:32:36;;;;;;;40.70;24.90;;;;;;;0.84;82.37;96038.80;104969;1256;100108;-77
2023/12/24 09:35:04;;;;;;;42.80;27.40;;;;;;;0.84;82.34;96036.46;104954;1260;99045;-78
2023/12/24 09:37:32;;;;;;;38.30;26.30;;;;;;;0.84;82.39;96034.13;104975;1256;96539;-71
2023/12/24 09:40:00;;;;;;;41.10;26.10;;;;;;;0.84;82.46;96032.33;104975;1264;97361;-71
2023/12/24 09:42:28;;;;;;;38.80;26.50;;;;;;;0.86;82.50;96028.62;104965;1257;100008;-72
2023/12/24 09:44:55;;;;;;;47.40;31.70;;;;;;;0.88;82.57;96028.07;105003;1256;101224;-69
2023/12/24 09:47:23;;;;;;;51.10;34.50;;;;;;;0.89;82.56;96025.63;104969;1267;99851;-72
2023/12/24 09:49:51;;;;;;;66.90;38.00;;;;;;;0.89;82.67;96021.48;104929;1260;95844;-69
2023/12/24 09:52:21;;;;;;;68.20;36.10;;;;;;;0.90;82.66;96024.19;104957;1258;96288;-69
2023/12/24 09:54:48;;;;;;;69.60;35.60;;;;;;;0.92;82.64;96023.07;104971;1256;100923;-72
2023/12/24 09:57:16;;;;;;;62.20;33.80;;;;;;;0.94;82.68;96018.23;104989;1269;101505;-74
2023/12/24 09:59:44;;;;;;;85.80;45.60;;;;;;;0.96;82.73;96019.40;104953;1272;98692;-76
2023/12/24 10:02:11;;;;;;;112.50;55.70;;;;;;;0.97;82.70;96018.17;104916;1260;95859;-75
2023/12/24 10:04:39;;;;;;;129.10;64.10;;;;;;;0.98;82.69;96013.32;104953;1254;96142;-75
2023/12/24 10:07:09;;;;;;;128.80;59.40;;;;;;;0.98;82.74;96011.89;104952;1260;100393;-76
2023/12/24 10:09:55;;;;;;;112.40;55.10;;;;;;;0.98;82.80;96008.86;105005;1268;101015;-76
2023/12/24 10:12:22;;;;;;;103.40;49.80;;;;;;;1.00;82.92;96007.51;104965;1254;99937;-76
2023/12/24 10:14:58;;;;;;;84.40;46.50;;;;;;;1.03;82.96;96002.27;104941;1259;96722;-77
2023/12/24 10:17:30;;;;;;;84.50;42.10;;;;;;;1.07;83.04;95995.50;105054;1259;95832;-77
2023/12/24 10:19:58;;;;;;;80.50;43.10;;;;;;;1.11;83.03;96000.55;105032;1259;100873;-77
2023/12/24 10:22:26;;;;;;;65.60;37.80;;;;;;;1.15;83.10;95998.52;105028;1268;99983;-77
2023/12/24 10:25:02;;;;;;;62.50;38.10;;;;;;;1.17;83.08;95993.33;104947;1257;99820;-76
2023/12/24 10:27:30;;;;;;;69.70;40.20;;;;;;;1.17;83.16;95989.27;104927;1270;95838;-76
2023/12/24 10:30:15;;;;;;;69.40;40.80;;;;;;;1.18;83.21;95990.42;104899;1259;97246;-76
2023/12/24 10:32:44;;;;;;;74.20;42.20;;;;;;;1.20;83.24;95984.85;105031;1254;100076;-76
2023/12/24 10:35:12;;;;;;;80.40;43.60;;;;;;;1.22;83.29;95982.01;105037;1258;101546;-79
2023/12/24 10:37:39;;;;;;;70.30;38.00;;;;;;;1.24;83.32;95975.44;104931;1268;99891;-78
2023/12/24 10:40:12;;;;;;;62.40;36.20;;;;;;;1.28;83.36;95978.11;104899;1260;95923;-77
2023/12/24 10:42:40;;;;;;;;;;;;;;;1.31;83.35;95971.19;105016;1254;96805;-78
2023/12/24 10:45:11;;;;;;;60.40;36.10;;;;;;;1.31;83.43;95971.60;104992;1266;99937;-78
2023/12/24 10:47:39;;;;;;;57.80;35.90;;;;;;;1.33;83.50;95967.05;104935;1259;101382;-77
2023/12/24 10:50:07;;;;;;;70.90;42.10;;;;;;;1.33;83.45;95960.35;104938;1256;99991;-77
2023/12/24 10:52:35;;;;;;;66.60;41.10;;;;;;;1.30;83.50;95958.17;104906;1253;95842;-71
2023/12/24 10:55:04;;;;;;;68.40;41.30;;;;;;;1.29;83.56;95959.68;105009;1260;96531;-78
2023/12/24 10:57:44;;;;;;;69.50;41.10;;;;;;;1.30;83.58;95955.36;104912;1270;101067;-79
2023/12/24 11:00:14;;;;;;;77.90;45.00;;;;;;;1.30;83.60;95956.21;105006;1276;101505;-79
2023/12/24 11:02:47;;;;;;;69.80;42.60;;;;;;;1.30;83.68;95953.77;104991;1276;98975;-79
2023/12/24 11:05:42;;;;;;;73.10;40.00;;;;;;;1.31;83.82;95948.46;104906;1258;96175;-80
2023/12/24 11:08:22;;;;;;;53.00;29.10;;;;;;;1.34;83.98;95950.46;104943;1268;96168;-77
2023/12/24 11:10:54;;;;;;;48.20;25.80;;;;;;;1.37;84.08;95948.41;105018;1259;100516;-76
2023/12/24 11:13:48;;;;;;;;;;;;;;;1.41;84.13;95943.15;105210;1258;101510;-71
2023/12/24 11:16:41;;;;;;;44.20;25.90;;;;;;;1.44;84.30;95942.48;104931;1259;99098;-77
2023/12/24 11:19:23;;;;;;;51.60;28.10;;;;;;;1.47;84.29;95938.89;105036;1259;95883;-77
2023/12/24 11:22:26;;;;;;;47.80;26.70;;;;;;;1.50;84.24;95937.05;105175;1254;96690;-77
2023/12/24 11:25:17;;;;;;;36.70;21.40;;;;;;;1.53;84.37;95927.80;104598;1265;100874;-76